createdAt,value
2018-05-26T00:02:02.047Z,668.23
2018-05-26T00:04:28.543Z,646.20
2018-05-26T00:06:55.005Z,532.80
2018-05-26T00:09:22.234Z,716.37
2018-05-26T00:11:49.484Z,541.20
2018-05-26T00:14:16.699Z,561.43
2018-05-26T00:16:44.171Z,662.93
2018-05-26T00:19:10.643Z,604.97
2018-05-26T00:21:37.826Z,653.97
2018-05-26T00:24:04.266Z,552.47
2018-05-26T00:26:30.757Z,618.43
2018-05-26T00:28:57.187Z,687.63
2018-05-26T00:31:23.696Z,599.30
2018-05-26T00:34:03.986Z,556.10
2018-05-26T00:36:30.493Z,602.57
2018-05-26T00:38:57.005Z,614.23
2018-05-26T00:41:38.456Z,917.33
2018-05-26T00:44:04.936Z,741.87
2018-05-26T00:46:32.194Z,806.50
2018-05-26T00:48:58.670Z,866.50
2018-05-26T00:51:25.163Z,670.47
2018-05-26T00:53:51.668Z,866.47
2018-05-26T00:56:18.926Z,775.70
2018-05-26T00:58:45.517Z,891.17
2018-05-26T01:01:12.107Z,753.40
2018-05-26T01:03:40.679Z,616.73
2018-05-26T01:06:07.273Z,855.27
2018-05-26T01:08:34.562Z,792.97
2018-05-26T01:11:01.132Z,651.63
2018-05-26T01:13:27.653Z,725.77
2018-05-26T01:15:54.183Z,755.20
2018-05-26T01:18:20.720Z,631.43
2018-05-26T01:20:47.258Z,676.27
2018-05-26T01:23:13.791Z,753.00
2018-05-26T01:25:40.332Z,679.70
2018-05-26T01:28:06.875Z,740.57
2018-05-26T01:30:33.427Z,697.43
2018-05-26T01:33:14.358Z,589.00
2018-05-26T01:35:40.874Z,765.43
2018-05-26T01:38:08.027Z,626.17
2018-05-26T01:40:35.187Z,658.47
2018-05-26T01:43:01.668Z,672.50
2018-05-26T01:45:28.142Z,694.17
2018-05-26T01:47:55.296Z,821.87
2018-05-26T01:50:21.754Z,812.60
2018-05-26T01:52:48.220Z,849.60
2018-05-26T01:55:14.644Z,899.07
2018-05-26T01:57:41.057Z,911.23
2018-05-26T02:00:07.505Z,849.63
2018-05-26T02:02:33.949Z,793.03
2018-05-26T02:05:00.383Z,768.03
2018-05-26T02:07:26.908Z,709.27
2018-05-26T02:09:53.301Z,709.97
2018-05-26T02:12:19.880Z,670.27
2018-05-26T02:14:46.440Z,742.67
2018-05-26T02:17:12.967Z,737.03
2018-05-26T02:19:39.531Z,783.10
2018-05-26T02:22:06.798Z,783.13
2018-05-26T02:24:34.079Z,888.33
2018-05-26T02:27:00.616Z,849.73
2018-05-26T02:29:27.113Z,896.73
2018-05-26T02:31:54.398Z,947.50
2018-05-26T02:34:20.960Z,978.93
2018-05-26T02:36:47.504Z,935.23
2018-05-26T02:39:14.100Z,1021.70
2018-05-26T02:41:40.624Z,920.13
2018-05-26T02:44:07.152Z,1178.67
2018-05-26T02:46:34.436Z,943.63
2018-05-26T02:49:00.962Z,1032.13
2018-05-26T02:51:27.565Z,1127.93
2018-05-26T02:53:54.822Z,933.27
2018-05-26T02:56:21.370Z,1023.03
2018-05-26T02:58:47.898Z,1098.23
2018-05-26T03:01:14.452Z,1124.57
2018-05-26T03:03:41.011Z,1156.63
2018-05-26T03:06:13.569Z,1377.93
2018-05-26T03:08:46.073Z,1294.67
2018-05-26T03:11:18.624Z,1078.33
2018-05-26T03:13:51.100Z,1032.37
2018-05-26T03:16:38.115Z,990.63
2018-05-26T03:19:05.343Z,938.03
2018-05-26T03:21:31.771Z,1246.33
2018-05-26T03:23:58.258Z,1134.97
2018-05-26T03:26:24.704Z,936.93
2018-05-26T03:28:51.153Z,1388.50
2018-05-26T03:31:17.584Z,1329.10
2018-05-26T03:33:44.054Z,1289.37
2018-05-26T03:36:10.438Z,850.97
2018-05-26T03:38:36.928Z,1695.90
2018-05-26T03:41:03.319Z,978.07
2018-05-26T03:43:29.749Z,1034.57
2018-05-26T03:45:56.146Z,1099.60
2018-05-26T03:53:13.433Z,1078.37
2018-05-26T03:55:52.048Z,1130.50
2018-05-26T03:58:30.626Z,1024.13
2018-05-26T04:00:57.862Z,858.67
2018-05-26T04:03:24.312Z,863.80
2018-05-26T04:05:50.782Z,921.67
2018-05-26T04:08:17.213Z,768.90
2018-05-26T04:10:43.710Z,720.37
2018-05-26T04:13:11.930Z,759.60
2018-05-26T04:15:38.394Z,668.97
2018-05-26T04:18:04.857Z,682.73
2018-05-26T04:20:31.291Z,949.47
2018-05-26T04:22:57.753Z,873.07
2018-05-26T04:25:24.958Z,754.73
2018-05-26T04:27:51.402Z,826.23
2018-05-26T04:30:17.826Z,894.33
2018-05-26T04:32:44.234Z,826.43
2018-05-26T04:35:11.668Z,769.87
2018-05-26T04:37:38.102Z,791.43
2018-05-26T04:40:04.531Z,876.27
2018-05-26T04:42:31.000Z,921.53
2018-05-26T04:44:57.502Z,784.53
2018-05-26T04:47:23.940Z,776.70
2018-05-26T04:49:50.397Z,617.47
2018-05-26T04:52:18.897Z,580.40
2018-05-26T04:54:53.227Z,555.10
2018-05-26T04:57:19.695Z,507.33
2018-05-26T04:59:46.200Z,464.43
2018-05-26T05:02:13.422Z,458.80
2018-05-26T05:04:39.880Z,418.33
2018-05-26T05:07:06.312Z,421.97
2018-05-26T05:09:32.739Z,412.43
2018-05-26T05:11:59.928Z,356.03
2018-05-26T05:14:26.384Z,360.00
2018-05-26T05:16:52.768Z,341.33
2018-05-26T05:19:19.181Z,326.87
2018-05-26T05:21:45.570Z,377.40
2018-05-26T05:24:11.968Z,353.37
2018-05-26T05:26:39.150Z,332.57
2018-05-26T05:29:06.541Z,304.93
2018-05-26T05:31:32.967Z,261.67
2018-05-26T05:33:59.366Z,285.57
2018-05-26T05:38:58.613Z,263.37
2018-05-26T05:41:25.819Z,192.30
2018-05-26T05:43:52.229Z,182.17
2018-05-26T05:46:19.520Z,180.43
2018-05-26T05:48:46.032Z,185.87
2018-05-26T05:51:12.555Z,174.83
2018-05-26T05:53:39.807Z,158.90
2018-05-26T05:56:07.038Z,159.27
2018-05-26T05:58:34.292Z,146.63
2018-05-26T06:01:00.855Z,135.63
2018-05-26T06:03:27.419Z,127.23
2018-05-26T06:05:53.945Z,122.87
2018-05-26T06:08:20.466Z,137.00
2018-05-26T06:10:46.985Z,128.90
2018-05-26T06:13:13.525Z,122.43
2018-05-26T06:15:40.772Z,125.43
2018-05-26T06:18:07.310Z,122.63
2018-05-26T06:20:33.876Z,118.87
2018-05-26T06:23:00.375Z,125.73
2018-05-26T06:25:27.683Z,112.40
2018-05-26T06:27:54.208Z,112.60
2018-05-26T06:30:20.698Z,108.93
2018-05-26T06:32:47.933Z,105.57
2018-05-26T06:35:14.479Z,97.30
2018-05-26T06:37:41.110Z,107.40
2018-05-26T06:40:07.622Z,93.10
2018-05-26T06:42:34.115Z,89.67
2018-05-26T06:47:26.141Z,86.80
2018-05-26T06:49:52.541Z,92.28
2018-05-26T06:52:18.976Z,88.43
2018-05-26T06:54:45.420Z,74.57
2018-05-26T06:57:11.825Z,77.63
2018-05-26T06:59:39.249Z,77.67
2018-05-26T07:02:05.707Z,74.10
2018-05-26T07:04:32.130Z,74.07
2018-05-26T07:06:58.648Z,73.10
2018-05-26T07:09:25.208Z,78.00
2018-05-26T07:11:51.609Z,72.62
2018-05-26T07:14:18.815Z,73.10
2018-05-26T07:16:45.292Z,76.85
2018-05-26T07:19:11.682Z,77.68
2018-05-26T07:21:38.101Z,67.97
2018-05-26T07:24:04.523Z,71.47
2018-05-26T07:26:30.984Z,68.20
2018-05-26T07:28:57.393Z,65.30
2018-05-26T07:31:23.816Z,65.25
2018-05-26T07:33:50.220Z,67.32
2018-05-26T07:36:16.651Z,66.57
2018-05-26T07:38:43.069Z,62.75
2018-05-26T07:41:10.257Z,64.32
2018-05-26T07:43:36.683Z,64.15
2018-05-26T07:46:03.867Z,62.50
2018-05-26T07:48:30.294Z,63.95
2018-05-26T07:50:56.701Z,60.03
2018-05-26T07:53:23.908Z,58.87
2018-05-26T07:55:50.448Z,58.67
2018-05-26T07:58:16.877Z,61.50
2018-05-26T08:00:43.323Z,60.00
2018-05-26T08:03:09.784Z,55.80
2018-05-26T08:05:36.276Z,60.80
2018-05-26T08:08:03.737Z,59.50
2018-05-26T08:10:30.179Z,58.45
2018-05-26T08:12:56.610Z,57.47
2018-05-26T08:15:27.998Z,57.78
2018-05-26T08:18:05.264Z,54.25
2018-05-26T08:20:31.813Z,53.22
2018-05-26T08:22:58.225Z,56.90
2018-05-26T08:25:25.374Z,57.62
2018-05-26T08:27:52.528Z,54.72
2018-05-26T08:30:18.955Z,55.78
2018-05-26T08:32:45.394Z,55.10
2018-05-26T08:35:11.835Z,52.97
2018-05-26T08:37:38.268Z,54.92
2018-05-26T08:40:04.718Z,51.72
2018-05-26T08:42:31.157Z,55.17
2018-05-26T08:44:57.576Z,52.13
2018-05-26T08:47:24.155Z,50.63
2018-05-26T08:49:51.374Z,52.55
2018-05-26T08:52:17.800Z,52.10
2018-05-26T08:54:44.308Z,53.97
2018-05-26T08:57:11.579Z,50.78
2018-05-26T08:59:38.044Z,49.90
2018-05-26T09:02:06.114Z,54.42
2018-05-26T09:04:32.567Z,52.97
2018-05-26T09:06:59.797Z,45.78
2018-05-26T09:09:26.276Z,51.17
2018-05-26T09:11:53.399Z,53.35
2018-05-26T09:14:19.929Z,54.22
2018-05-26T09:16:46.349Z,48.33
2018-05-26T09:19:13.561Z,49.42
2018-05-26T09:21:40.144Z,48.05
2018-05-26T09:24:07.398Z,51.05
2018-05-26T09:26:33.879Z,43.17
2018-05-26T09:29:00.459Z,44.63
2018-05-26T09:31:27.971Z,42.92
2018-05-26T09:33:54.481Z,39.35
2018-05-26T09:36:21.038Z,37.65
2018-05-26T09:38:47.554Z,43.10
2018-05-26T09:41:14.782Z,45.20
2018-05-26T09:43:42.082Z,44.03
2018-05-26T09:46:08.588Z,42.90
2018-05-26T09:48:35.096Z,40.47
2018-05-26T09:51:02.344Z,36.47
2018-05-26T09:53:28.889Z,36.22
2018-05-26T09:55:55.406Z,41.33
2018-05-26T09:58:21.946Z,35.35
2018-05-26T10:00:48.497Z,36.22
2018-05-26T10:03:15.776Z,35.70
2018-05-26T10:05:42.285Z,35.38
2018-05-26T10:08:09.535Z,32.95
2018-05-26T10:10:36.788Z,28.02
2018-05-26T10:13:04.026Z,30.70
2018-05-26T10:15:30.536Z,29.45
2018-05-26T10:17:57.040Z,28.67
2018-05-26T10:20:23.563Z,22.98
2018-05-26T10:22:50.102Z,16.37
2018-05-26T10:25:17.254Z,11.02
2018-05-26T10:27:43.642Z,12.13
2018-05-26T10:30:10.048Z,13.55
2018-05-26T10:32:36.543Z,11.75
2018-05-26T10:35:02.981Z,13.30
2018-05-26T10:37:30.112Z,13.32
2018-05-26T10:39:56.529Z,14.55
2018-05-26T10:42:22.971Z,12.70
2018-05-26T10:44:50.189Z,14.82
2018-05-26T10:47:16.635Z,12.20
2018-05-26T10:49:43.014Z,11.40
2018-05-26T10:52:10.241Z,11.82
2018-05-26T10:54:36.727Z,7.95
2018-05-26T10:57:03.169Z,11.82
2018-05-26T10:59:29.594Z,5.93
2018-05-26T11:02:32.683Z,7.28
2018-05-26T11:04:59.233Z,7.22
2018-05-26T11:07:25.753Z,7.12
2018-05-26T11:09:53.030Z,6.35
2018-05-26T11:12:19.576Z,9.65
2018-05-26T11:14:46.080Z,8.82
2018-05-26T11:17:13.344Z,7.90
2018-05-26T11:19:40.868Z,6.32
2018-05-26T11:22:08.124Z,6.43
2018-05-26T11:24:36.401Z,7.32
2018-05-26T11:27:02.916Z,5.90
2018-05-26T11:29:29.423Z,5.82
2018-05-26T11:31:55.968Z,7.30
2018-05-26T11:34:23.487Z,7.68
2018-05-26T11:36:50.053Z,9.98
2018-05-26T11:39:16.651Z,11.52
2018-05-26T11:41:43.898Z,9.82
2018-05-26T11:44:10.412Z,9.68
2018-05-26T11:46:37.672Z,9.18
2018-05-26T11:49:04.980Z,10.70
2018-05-26T11:51:31.559Z,9.55
2018-05-26T11:53:58.815Z,8.50
2018-05-26T11:56:25.390Z,6.70
2018-05-26T11:58:51.986Z,7.50
2018-05-26T12:01:19.262Z,7.43
2018-05-26T12:06:11.935Z,9.27
2018-05-26T12:08:38.387Z,9.65
2018-05-26T12:11:12.992Z,9.25
2018-05-26T12:13:43.420Z,9.25
2018-05-26T12:16:18.906Z,10.57
2018-05-26T12:18:45.376Z,11.02
2018-05-26T12:21:12.537Z,9.35
2018-05-26T12:23:39.002Z,10.40
2018-05-26T12:26:05.434Z,18.10
2018-05-26T12:28:31.943Z,10.60
2018-05-26T12:30:58.371Z,10.15
2018-05-26T12:33:24.898Z,7.95
2018-05-26T12:35:51.330Z,8.95
2018-05-26T12:38:18.550Z,8.15
2018-05-26T12:40:45.945Z,8.50
2018-05-26T12:43:13.247Z,7.75
2018-05-26T12:45:39.679Z,7.10
2018-05-26T12:48:06.247Z,6.03
2018-05-26T12:50:33.632Z,5.45
2018-05-26T12:53:00.037Z,6.03
2018-05-26T12:55:26.655Z,5.55
2018-05-26T12:57:53.085Z,5.90
2018-05-26T13:00:19.701Z,5.10
2018-05-26T13:02:46.168Z,5.53
2018-05-26T13:05:14.394Z,5.07
2018-05-26T13:07:40.857Z,3.97
2018-05-26T13:10:08.547Z,4.43
2018-05-26T13:12:35.000Z,3.78
2018-05-26T13:15:02.272Z,4.37
2018-05-26T13:17:29.849Z,5.30
2018-05-26T13:19:57.007Z,4.22
2018-05-26T13:22:32.021Z,5.30
2018-05-26T13:24:58.626Z,6.55
2018-05-26T13:27:25.236Z,5.60
2018-05-26T13:29:51.740Z,4.15
2018-05-26T13:32:18.311Z,4.32
2018-05-26T13:34:45.634Z,5.30
2018-05-26T13:37:12.175Z,4.43
2018-05-26T13:39:38.689Z,4.43
2018-05-26T13:42:06.231Z,4.00
2018-05-26T13:44:32.778Z,5.53
2018-05-26T13:46:59.312Z,4.65
2018-05-26T13:49:25.840Z,5.90
2018-05-26T13:51:52.361Z,5.18
2018-05-26T13:54:18.982Z,5.07
2018-05-26T13:56:45.466Z,5.05
2018-05-26T13:59:11.967Z,4.30
2018-05-26T14:01:38.576Z,4.72
2018-05-26T14:04:05.207Z,5.32
2018-05-26T14:06:33.841Z,6.47
2018-05-26T14:09:00.407Z,4.47
2018-05-26T14:11:26.978Z,4.83
2018-05-26T14:13:53.568Z,4.45
2018-05-26T14:16:20.865Z,4.28
2018-05-26T14:18:48.176Z,4.50
2018-05-26T14:21:14.710Z,4.87
2018-05-26T14:23:41.252Z,4.85
2018-05-26T14:26:07.858Z,4.90
2018-05-26T14:28:34.332Z,4.18
2018-05-26T14:31:01.848Z,4.62
2018-05-26T14:33:28.676Z,4.72
2018-05-26T14:35:55.121Z,4.95
2018-05-26T14:38:21.560Z,5.20
2018-05-26T14:41:27.286Z,4.30
2018-05-26T14:43:53.743Z,5.18
2018-05-26T14:46:20.215Z,4.30
2018-05-26T14:48:46.641Z,6.97
2018-05-26T14:51:37.160Z,6.12
2018-05-26T14:54:03.704Z,5.30
2018-05-26T14:59:19.499Z,5.80
2018-05-26T15:01:46.756Z,5.65
2018-05-26T15:04:13.359Z,5.55
2018-05-26T15:06:39.873Z,5.28
2018-05-26T15:09:06.466Z,5.40
2018-05-26T15:11:33.702Z,4.57
2018-05-26T15:14:00.212Z,5.85
2018-05-26T15:16:26.718Z,6.62
2018-05-26T15:18:53.269Z,6.47
2018-05-26T15:21:19.777Z,6.07
2018-05-26T15:23:46.309Z,3.85
2018-05-26T15:26:12.838Z,3.65
2018-05-26T15:28:39.430Z,4.65
2018-05-26T15:31:05.923Z,5.55
2018-05-26T15:33:32.412Z,7.43
2018-05-26T15:35:58.922Z,5.45
2018-05-26T15:38:25.674Z,4.65
2018-05-26T15:40:52.199Z,5.12
2018-05-26T15:43:18.747Z,4.87
2018-05-26T15:45:45.243Z,3.83
2018-05-26T15:48:11.730Z,4.47
2018-05-26T15:50:39.015Z,4.40
2018-05-26T15:53:11.478Z,4.80
2018-05-26T15:55:38.029Z,5.85
2018-05-26T16:22:02.190Z,3.45
2018-05-26T16:24:29.292Z,4.55
2018-05-26T16:26:56.435Z,3.25
2018-05-26T16:29:24.019Z,2.65
2018-05-26T16:31:50.539Z,4.95
2018-05-26T16:34:17.860Z,3.05
2018-05-26T16:36:44.402Z,3.42
2018-05-26T16:39:10.967Z,3.58
2018-05-26T16:41:37.490Z,3.00
2018-05-26T16:44:04.032Z,3.47
2018-05-26T16:46:30.626Z,3.42
2018-05-26T16:48:59.372Z,2.97
2018-05-26T16:51:25.889Z,5.37
2018-05-26T16:53:52.461Z,3.20
2018-05-26T16:56:18.988Z,3.05
2018-05-26T16:58:46.309Z,3.72
2018-05-26T17:01:12.858Z,3.58
2018-05-26T17:03:40.186Z,3.92
2018-05-26T17:06:06.698Z,4.72
2018-05-26T17:08:33.406Z,3.20
2018-05-26T17:11:00.668Z,3.65
2018-05-26T17:13:28.376Z,2.65
2018-05-26T17:15:56.379Z,3.30
2018-05-26T17:18:22.937Z,8.70
2018-05-26T17:20:50.560Z,3.67
2018-05-26T17:23:17.210Z,2.85
2018-05-26T17:25:43.740Z,3.55
2018-05-26T17:28:11.031Z,3.12
2018-05-26T17:30:37.553Z,3.60
2018-05-26T17:33:04.946Z,7.00
2018-05-26T17:35:31.430Z,5.20
2018-05-26T17:37:58.053Z,4.72
2018-05-26T17:40:24.466Z,4.53
2018-05-26T17:42:51.095Z,5.05
2018-05-26T17:45:17.523Z,4.22
2018-05-26T17:47:43.973Z,3.40
2018-05-26T17:50:10.411Z,4.00
2018-05-26T17:52:36.831Z,3.62
2018-05-26T17:55:03.293Z,3.80
2018-05-26T17:57:30.642Z,3.15
2018-05-26T17:59:57.149Z,3.12
2018-05-26T18:02:24.482Z,2.95
2018-05-26T18:04:51.185Z,3.25
2018-05-26T18:07:17.690Z,3.30
2018-05-26T18:09:44.249Z,2.87
2018-05-26T18:12:11.447Z,3.62
2018-05-26T18:14:37.966Z,2.95
2018-05-26T18:17:04.396Z,3.65
2018-05-26T18:19:32.002Z,3.97
2018-05-26T18:21:58.411Z,3.60
2018-05-26T18:24:24.976Z,4.62
2018-05-26T18:26:52.377Z,6.25
2018-05-26T18:29:18.869Z,4.53
2018-05-26T18:31:46.018Z,4.00
2018-05-26T18:34:12.567Z,4.30
2018-05-26T18:36:38.996Z,4.43
2018-05-26T18:39:06.327Z,4.50
2018-05-26T18:41:32.718Z,5.05
2018-05-26T18:43:59.392Z,5.37
2018-05-26T18:46:25.983Z,4.07
2018-05-26T18:48:56.401Z,3.90
2018-05-26T18:51:28.204Z,4.10
2018-05-26T18:53:55.429Z,3.78
2018-05-26T18:56:22.275Z,4.72
2018-05-26T18:58:48.684Z,3.83
2018-05-26T19:01:15.159Z,4.40
2018-05-26T19:03:42.325Z,4.40
2018-05-26T19:06:08.770Z,4.32
2018-05-26T19:08:35.214Z,4.35
2018-05-26T19:11:01.618Z,4.60
2018-05-26T19:13:28.029Z,4.12
2018-05-26T19:15:55.243Z,4.03
2018-05-26T19:18:21.677Z,4.72
2018-05-26T19:20:49.884Z,4.78
2018-05-26T19:23:17.033Z,6.15
2018-05-26T19:25:43.459Z,4.15
2018-05-26T19:28:10.645Z,6.80
2018-05-26T19:30:37.040Z,4.80
2018-05-26T19:33:09.499Z,4.20
2018-05-26T19:35:44.990Z,4.43
2018-05-26T19:38:12.239Z,4.87
2018-05-26T19:40:38.660Z,4.53
2018-05-26T19:43:05.093Z,5.50
2018-05-26T19:45:32.283Z,4.90
2018-05-26T19:47:58.714Z,5.28
2018-05-26T19:50:25.884Z,5.53
2018-05-26T19:52:52.284Z,5.25
2018-05-26T19:55:19.470Z,7.70
2018-05-26T19:57:45.859Z,5.47
2018-05-26T20:00:12.323Z,7.28
2018-05-26T20:02:38.777Z,6.03
2018-05-26T20:05:05.304Z,5.40
2018-05-26T20:07:31.748Z,5.37
2018-05-26T20:09:58.276Z,5.87
2018-05-26T20:12:24.670Z,5.97
2018-05-26T20:14:51.141Z,8.15
2018-05-26T20:17:17.560Z,5.35
2018-05-26T20:19:44.115Z,4.55
2018-05-26T20:22:10.517Z,4.65
2018-05-26T20:24:38.850Z,4.85
2018-05-26T20:27:06.044Z,6.53
2018-05-26T20:29:32.494Z,5.07
2018-05-26T20:31:58.901Z,4.80
2018-05-26T20:34:25.345Z,6.30
2018-05-26T20:36:51.732Z,5.10
2018-05-26T20:39:18.174Z,12.73
2018-05-26T20:41:44.624Z,4.85
2018-05-26T20:44:11.031Z,5.40
2018-05-26T20:46:37.487Z,5.68
2018-05-26T21:21:27.723Z,5.53
2018-05-26T21:23:54.254Z,6.47
2018-05-26T21:26:20.676Z,6.87
2018-05-26T21:28:47.260Z,7.53
2018-05-26T21:31:13.695Z,7.97
2018-05-26T21:33:40.156Z,9.10
2018-05-26T21:36:06.561Z,8.43
2018-05-26T21:38:37.652Z,7.87
2018-05-26T21:51:23.850Z,8.10
2018-05-26T21:53:50.318Z,6.65
2018-05-26T21:56:17.458Z,7.40
2018-05-26T21:58:44.649Z,6.78
2018-05-26T22:01:11.041Z,7.45
2018-05-26T22:03:37.489Z,7.80
2018-05-26T22:06:04.642Z,7.78
2018-05-26T22:08:31.098Z,7.87
2018-05-26T22:10:57.530Z,8.55
2018-05-26T22:13:24.015Z,7.90
2018-05-26T22:15:51.201Z,7.80
2018-05-26T22:18:17.610Z,8.68
2018-05-26T22:20:44.756Z,8.75
2018-05-26T22:23:20.191Z,8.25
2018-05-26T22:29:21.246Z,8.07
2018-05-26T22:32:03.307Z,9.23
2018-05-26T22:34:30.429Z,8.63
2018-05-26T22:36:57.636Z,9.52
2018-05-26T22:39:24.066Z,8.60
2018-05-26T22:41:51.513Z,8.45
2018-05-26T22:44:18.651Z,8.13
2018-05-26T22:46:45.905Z,10.05
2018-05-26T22:49:13.036Z,8.88
2018-05-26T22:51:41.266Z,9.65
2018-05-26T22:54:07.804Z,9.80
2018-05-26T22:56:34.238Z,8.25
2018-05-26T22:59:00.735Z,9.55
2018-05-26T23:01:27.885Z,8.93
2018-05-26T23:03:55.335Z,9.43
2018-05-26T23:06:21.730Z,10.00
2018-05-26T23:08:48.213Z,9.80
2018-05-26T23:11:14.620Z,10.30
2018-05-26T23:13:41.805Z,11.00
2018-05-26T23:16:08.223Z,10.68
2018-05-26T23:18:34.657Z,11.07
2018-05-26T23:47:37.603Z,11.88
2018-05-26T23:50:22.980Z,11.20
2018-05-26T23:52:50.194Z,10.73
2018-05-26T23:55:16.726Z,11.88
2018-05-26T23:57:43.175Z,11.05
